West Palm Beach, FL (33406)

1:22 PM EST on February 09, 2016 (GMT -0500)
SFWMD | | Change Station
CLOSE
Current Station
Personal Weather Station
Location: West Palm Beach, FL
Elevation: 16 ft
Nearby Weather Stations

Elev 16 ft 26.65 °N, 80.07 °W | Updated 37 minutes ago

Mostly Cloudy
Mostly Cloudy
59 °F
Feels Like 59 °F
N
8
Wind Variable Wind from West
Gusts 18.0 mph

Today
High -- | Low -- °F
--% Chance of Precip.
Yesterday
High -- | Low -- °F
Precip. -- in
Pressure 30.06 in
Visibility 10.0 miles
Clouds Scattered Clouds 5000 ft
Mostly Cloudy 24000 ft
Dew Point 41 °F
Humidity 51%
Rainfall in
Snow Depth Not available.
7:01 AM 6:08 PM
New Moon, 2% visible
METAR KPBI 091753Z 29011G18KT 10SM SCT050 BKN240 16/05 A3005 RMK AO2 SLP177 T01560050 10161 20139 58013
Pressure 30.06 in
Visibility 10.0 miles
Clouds Scattered Clouds 5000 ft
Mostly Cloudy 24000 ft
Dew Point 41 °F
Humidity 51%
Rainfall in
Snow Depth Not available.
7:01 AM 6:08 PM
New Moon, 2% visible
METAR KPBI 091753Z 29011G18KT 10SM SCT050 BKN240 16/05 A3005 RMK AO2 SLP177 T01560050 10161 20139 58013

10-Day Weather Forecast

Almanac

Astronomy

Feb. 09, 2016 Rise Set
Actual Time
Civil Twilight
Nautical Twilight
Astronomical Twilight
Moon
Length of Visible Light
Length of Day
Tomorrow will be .
, % of the Moon is Illuminated

Today's Extremes

State Highs State Lows

Community

WunderPhotos

Upload Photos

1,891,655 photos uploaded!

WunderBlog® & News

Nearby

Air Quality

  Air Quality AQ Index Pollutant
Not available.

Snow Depth

Station Depth Elevation

Earthquake Activity

City Distance Mag. Time & Date
Minimum magnitude displayed is 2.5.

Coastal Water Temperatures

Place Temperature

Stations

Nearby Weather Stations

Station Location Temp. Windchill Dew Point Humidity Wind Precip. Elev Updated Type
                   

Watches & Warnings

There are currently no watches in effect.